Time;durP1;ratioP1;P1;durP2;ratioP2;P2;SDS_P1;SDS_P2;PMS_P1;PMS_P2;Temp;Humidity;BMP_temperature;BMP_pressure;BME280_temperature;BME280_humidity;BME280_pressure;Samples;Min_cycle;Max_cycle;Signal;HPM_P1;HPM_P2
2023/01/23 00:01:15;;;;;;;0.40;0.40;;;;;;;;;;5045917;28;20207;-72
2023/01/23 00:03:42;;;;;;;1.67;1.57;;;;;;;;;;5050426;28;20223;-72
2023/01/23 00:06:11;;;;;;;0.43;0.43;;;;;;;;;;5049922;28;20241;-71
2023/01/23 00:08:38;;;;;;;0.70;0.70;;;;;;;;;;5049220;28;20274;-71
2023/01/23 00:11:06;;;;;;;1.07;0.80;;;;;;;;;;5050331;28;20207;-71
2023/01/23 00:13:33;;;;;;;3.17;2.23;;;;;;;;;;5050217;28;20203;-72
2023/01/23 00:16:00;;;;;;;1.13;1.03;;;;;;;;;;5050277;28;20208;-70
2023/01/23 00:18:28;;;;;;;0.87;0.50;;;;;;;;;;5048515;28;20214;-70
2023/01/23 00:20:55;;;;;;;1.50;1.40;;;;;;;;;;5049927;28;20199;-71
2023/01/23 00:23:22;;;;;;;1.27;1.17;;;;;;;;;;5049200;28;20233;-70
2023/01/23 00:25:49;;;;;;;0.77;0.77;;;;;;;;;;5049042;28;20207;-69
2023/01/23 00:28:16;;;;;;;0.77;0.60;;;;;;;;;;5046314;28;20219;-70
2023/01/23 00:30:43;;;;;;;1.60;1.50;;;;;;;;;;5049368;28;20677;-69
2023/01/23 00:33:10;;;;;;;1.00;1.00;;;;;;;;;;5042752;28;20268;-70
2023/01/23 00:35:38;;;;;;;1.43;1.40;;;;;;;;;;5045710;28;20600;-70
2023/01/23 00:38:05;;;;;;;2.00;1.47;;;;;;;;;;5049408;28;20929;-70
2023/01/23 00:40:32;;;;;;;1.80;1.37;;;;;;;;;;5049229;28;20204;-71
2023/01/23 00:42:59;;;;;;;2.37;1.30;;;;;;;;;;5048975;28;20230;-70
2023/01/23 00:45:36;;;;;;;2.07;1.97;;;;;;;;;;5048050;28;20829;-70
2023/01/23 00:48:03;;;;;;;1.10;1.10;;;;;;;;;;5044330;28;20221;-69
2023/01/23 00:50:30;;;;;;;2.07;1.53;;;;;;;;;;5048610;28;20276;-70
2023/01/23 00:52:59;;;;;;;1.80;1.40;;;;;;;;;;5048530;28;20221;-70
2023/01/23 00:55:26;;;;;;;3.87;2.37;;;;;;;;;;5048486;28;20665;-69
2023/01/23 00:57:53;;;;;;;1.43;1.20;;;;;;;;;;5047925;28;20242;-70
2023/01/23 01:00:20;;;;;;;1.27;1.17;;;;;;;;;;5048392;28;20207;-70
2023/01/23 01:02:47;;;;;;;1.60;1.53;;;;;;;;;;5048396;28;20223;-69
2023/01/23 01:05:16;;;;;;;1.10;1.10;;;;;;;;;;5049189;28;20690;-69
2023/01/23 01:07:44;;;;;;;1.27;1.13;;;;;;;;;;5049251;28;20203;-69
2023/01/23 01:10:13;;;;;;;0.60;0.60;;;;;;;;;;5049283;28;20748;-70
2023/01/23 01:12:40;;;;;;;1.90;1.67;;;;;;;;;;5049244;28;20216;-69
2023/01/23 01:15:08;;;;;;;0.50;0.50;;;;;;;;;;5045128;28;20210;-71
2023/01/23 01:17:35;;;;;;;0.47;0.43;;;;;;;;;;5049196;28;20203;-69
2023/01/23 01:20:03;;;;;;;0.70;0.70;;;;;;;;;;5048281;28;20214;-69
2023/01/23 01:22:30;;;;;;;0.60;0.60;;;;;;;;;;5048800;28;20206;-69
2023/01/23 01:24:57;;;;;;;1.80;1.67;;;;;;;;;;5048733;28;20717;-69
2023/01/23 01:27:25;;;;;;;0.20;0.20;;;;;;;;;;5048874;28;20644;-70
2023/01/23 01:29:52;;;;;;;3.50;2.30;;;;;;;;;;5048735;28;20210;-70
2023/01/23 01:32:19;;;;;;;2.40;1.30;;;;;;;;;;5048259;28;20215;-69
2023/01/23 01:34:46;;;;;;;4.53;1.37;;;;;;;;;;5048557;28;20266;-69
2023/01/23 01:37:13;;;;;;;1.67;1.40;;;;;;;;;;5045797;28;20223;-70
2023/01/23 01:39:40;;;;;;;1.07;0.83;;;;;;;;;;5048328;28;20207;-69
2023/01/23 01:42:07;;;;;;;1.57;1.47;;;;;;;;;;5048702;28;20711;-69
2023/01/23 01:47:31;;;;;;;1.40;1.23;;;;;;;;;;5125437;27;20283;-70
2023/01/23 01:50:02;;;;;;;1.90;0.83;;;;;;;;;;5104284;28;20223;-70
2023/01/23 01:52:29;;;;;;;0.60;0.40;;;;;;;;;;5105367;28;20697;-70
2023/01/23 01:54:57;;;;;;;0.40;0.37;;;;;;;;;;5104919;28;20229;-71
2023/01/23 01:57:26;;;;;;;1.53;1.43;;;;;;;;;;5088665;28;20229;-69
2023/01/23 01:59:54;;;;;;;3.30;1.23;;;;;;;;;;5081433;28;20299;-70
2023/01/23 02:02:24;;;;;;;0.33;0.30;;;;;;;;;;5082903;28;20693;-70
2023/01/23 02:04:56;;;;;;;0.40;0.40;;;;;;;;;;5083560;28;20625;-71
2023/01/23 02:07:26;;;;;;;1.90;1.53;;;;;;;;;;5083817;28;20764;-70
2023/01/23 02:09:53;;;;;;;0.80;0.80;;;;;;;;;;5083918;28;20205;-70
2023/01/23 02:12:20;;;;;;;2.33;0.53;;;;;;;;;;5082827;28;20211;-70
2023/01/23 02:14:47;;;;;;;1.00;0.80;;;;;;;;;;5085025;28;20233;-71
2023/01/23 02:17:14;;;;;;;1.03;0.93;;;;;;;;;;5085009;28;20197;-70
2023/01/23 02:19:44;;;;;;;0.43;0.43;;;;;;;;;;5084427;28;20647;-70
2023/01/23 02:22:19;;;;;;;2.43;1.07;;;;;;;;;;5082613;28;20199;-70
2023/01/23 02:24:50;;;;;;;0.83;0.83;;;;;;;;;;5084439;28;20283;-70
2023/01/23 02:27:18;;;;;;;0.87;0.87;;;;;;;;;;5084413;28;20582;-69
2023/01/23 02:29:47;;;;;;;1.10;1.00;;;;;;;;;;5084136;28;20209;-68
2023/01/23 02:32:14;;;;;;;0.80;0.70;;;;;;;;;;5081924;28;20198;-71
2023/01/23 02:34:42;;;;;;;1.20;1.17;;;;;;;;;;5083517;28;20208;-69
2023/01/23 02:37:09;;;;;;;2.17;0.83;;;;;;;;;;5083635;28;20230;-69
2023/01/23 02:39:38;;;;;;;1.50;1.40;;;;;;;;;;5084199;28;20212;-69
2023/01/23 02:42:05;;;;;;;2.13;0.80;;;;;;;;;;5082790;28;20324;-69
2023/01/23 02:44:34;;;;;;;1.77;1.60;;;;;;;;;;5083841;28;20311;-70
2023/01/23 02:47:01;;;;;;;1.10;0.63;;;;;;;;;;5082688;28;20247;-70
2023/01/23 02:49:29;;;;;;;0.60;0.60;;;;;;;;;;5074059;28;20219;-69
2023/01/23 02:51:56;;;;;;;1.37;1.30;;;;;;;;;;5073112;28;20203;-70
2023/01/23 02:54:24;;;;;;;0.63;0.63;;;;;;;;;;5082754;28;20220;-70
2023/01/23 02:56:51;;;;;;;1.70;1.50;;;;;;;;;;5080746;28;20229;-70
2023/01/23 03:02:05;;;;;;;1.17;1.17;;;;;;;;;;5067522;28;20210;-70
2023/01/23 03:04:32;;;;;;;1.53;0.57;;;;;;;;;;5069915;28;20282;-70
2023/01/23 03:06:59;;;;;;;0.73;0.73;;;;;;;;;;5069816;28;20236;-69
2023/01/23 03:09:26;;;;;;;0.47;0.40;;;;;;;;;;5070604;28;20669;-69
2023/01/23 03:11:53;;;;;;;2.50;1.80;;;;;;;;;;5069386;28;20268;-68
2023/01/23 03:14:21;;;;;;;2.03;1.73;;;;;;;;;;5069437;28;20218;-69
2023/01/23 03:16:50;;;;;;;0.63;0.63;;;;;;;;;;5068724;28;20210;-69
2023/01/23 03:19:19;;;;;;;0.23;0.23;;;;;;;;;;5070418;28;20219;-69
2023/01/23 03:21:46;;;;;;;0.73;0.50;;;;;;;;;;5067993;28;20209;-69
2023/01/23 03:24:13;;;;;;;0.60;0.53;;;;;;;;;;5069095;28;20220;-69
2023/01/23 03:26:41;;;;;;;2.47;1.33;;;;;;;;;;5068887;28;20239;-69
2023/01/23 03:31:53;;;;;;;0.67;0.67;;;;;;;;;;5068667;28;20694;-69
2023/01/23 03:34:22;;;;;;;0.30;0.30;;;;;;;;;;5069140;28;20257;-69
2023/01/23 03:36:50;;;;;;;1.43;0.87;;;;;;;;;;5068749;28;20653;-69
2023/01/23 03:42:02;;;;;;;2.87;2.03;;;;;;;;;;5068610;28;20681;-69
2023/01/23 03:44:29;;;;;;;2.20;2.03;;;;;;;;;;5068414;28;20645;-69
2023/01/23 03:46:56;;;;;;;0.30;0.30;;;;;;;;;;5069483;28;20237;-69
2023/01/23 03:49:24;;;;;;;0.60;0.60;;;;;;;;;;5065164;28;20687;-69
2023/01/23 03:51:51;;;;;;;1.40;1.30;;;;;;;;;;5069266;28;20205;-68
2023/01/23 03:54:18;;;;;;;1.97;1.13;;;;;;;;;;5067771;28;20226;-69
2023/01/23 03:56:45;;;;;;;2.87;1.10;;;;;;;;;;5068774;28;20229;-69
2023/01/23 03:59:12;;;;;;;1.33;1.30;;;;;;;;;;5061693;28;20210;-69
2023/01/23 04:01:40;;;;;;;3.57;1.93;;;;;;;;;;5069067;28;20203;-69
2023/01/23 04:04:07;;;;;;;3.00;1.60;;;;;;;;;;5067781;28;20234;-69
2023/01/23 04:06:35;;;;;;;1.17;1.07;;;;;;;;;;5067705;28;20240;-69
2023/01/23 04:09:02;;;;;;;2.47;1.03;;;;;;;;;;5068146;28;20201;-69
2023/01/23 04:11:29;;;;;;;2.30;1.33;;;;;;;;;;5069142;28;20273;-69
2023/01/23 04:13:56;;;;;;;2.80;1.47;;;;;;;;;;5068162;28;20206;-69
2023/01/23 04:16:23;;;;;;;2.17;2.07;;;;;;;;;;5063486;28;20758;-69
2023/01/23 04:18:51;;;;;;;1.37;0.80;;;;;;;;;;5054770;28;20227;-69
2023/01/23 04:21:18;;;;;;;2.23;2.13;;;;;;;;;;5068659;28;20206;-69
2023/01/23 04:23:46;;;;;;;2.00;0.53;;;;;;;;;;5067254;28;20206;-68
2023/01/23 04:26:14;;;;;;;1.80;1.40;;;;;;;;;;5066977;28;20611;-68
2023/01/23 04:28:41;;;;;;;0.93;0.73;;;;;;;;;;5058737;28;21195;-68
2023/01/23 04:31:08;;;;;;;1.07;0.97;;;;;;;;;;5064995;28;20833;-68
2023/01/23 04:33:35;;;;;;;1.53;1.43;;;;;;;;;;5066180;28;20300;-68
2023/01/23 04:36:03;;;;;;;1.50;1.23;;;;;;;;;;5066878;28;20629;-68
2023/01/23 04:38:31;;;;;;;1.77;1.67;;;;;;;;;;5067205;28;20668;-68
2023/01/23 04:41:00;;;;;;;1.57;1.47;;;;;;;;;;5068130;28;20222;-68
2023/01/23 04:43:27;;;;;;;0.50;0.50;;;;;;;;;;5067336;28;20924;-68
2023/01/23 04:45:56;;;;;;;0.93;0.93;;;;;;;;;;5066928;28;20241;-68
2023/01/23 04:48:23;;;;;;;1.00;1.00;;;;;;;;;;5067852;28;20203;-68
2023/01/23 04:50:51;;;;;;;0.67;0.67;;;;;;;;;;5067539;28;20206;-69
2023/01/23 04:53:18;;;;;;;0.50;0.50;;;;;;;;;;5067423;28;20211;-69
2023/01/23 04:55:47;;;;;;;2.30;1.47;;;;;;;;;;5065168;28;20252;-69
2023/01/23 04:58:15;;;;;;;1.57;1.17;;;;;;;;;;5066358;28;20693;-68
2023/01/23 05:00:42;;;;;;;1.70;1.60;;;;;;;;;;5065995;28;20217;-72
2023/01/23 05:03:09;;;;;;;0.97;0.93;;;;;;;;;;5066456;28;20225;-69
2023/01/23 05:05:36;;;;;;;3.97;1.33;;;;;;;;;;5066400;28;20221;-69
2023/01/23 05:08:04;;;;;;;1.60;0.87;;;;;;;;;;5067486;28;20232;-69
2023/01/23 05:10:31;;;;;;;1.90;1.80;;;;;;;;;;5067350;28;20270;-69
2023/01/23 05:12:58;;;;;;;2.33;1.43;;;;;;;;;;5066525;28;20739;-69
2023/01/23 05:15:26;;;;;;;5.37;2.17;;;;;;;;;;5066224;28;20214;-68
2023/01/23 05:17:53;;;;;;;0.80;0.80;;;;;;;;;;5064114;28;20207;-71
2023/01/23 05:20:22;;;;;;;2.60;2.40;;;;;;;;;;5067905;28;20209;-68
2023/01/23 05:22:52;;;;;;;2.77;2.40;;;;;;;;;;5067296;28;20232;-68
2023/01/23 05:25:19;;;;;;;3.40;1.70;;;;;;;;;;5067272;28;20238;-69
2023/01/23 05:27:46;;;;;;;0.53;0.53;;;;;;;;;;5067831;28;20678;-69
2023/01/23 05:30:13;;;;;;;1.20;1.20;;;;;;;;;;5066933;28;20215;-68
2023/01/23 05:32:42;;;;;;;2.53;1.93;;;;;;;;;;5066984;28;20634;-68
2023/01/23 05:35:09;;;;;;;1.73;1.20;;;;;;;;;;5066007;28;20210;-67
2023/01/23 05:37:36;;;;;;;2.83;2.60;;;;;;;;;;5067861;28;20203;-68
2023/01/23 05:40:04;;;;;;;1.53;1.43;;;;;;;;;;5067511;28;20218;-68
2023/01/23 05:42:31;;;;;;;2.47;1.50;;;;;;;;;;5068002;28;20210;-69
2023/01/23 05:44:58;;;;;;;0.80;0.80;;;;;;;;;;5066191;28;20225;-68
2023/01/23 05:47:26;;;;;;;2.03;1.10;;;;;;;;;;5067268;28;20253;-68
2023/01/23 05:49:55;;;;;;;3.13;1.83;;;;;;;;;;5063054;28;20212;-68
2023/01/23 05:52:22;;;;;;;2.67;1.47;;;;;;;;;;5066079;28;20206;-68
2023/01/23 05:54:49;;;;;;;3.10;2.07;;;;;;;;;;5067615;28;20206;-69
2023/01/23 05:57:16;;;;;;;1.70;1.47;;;;;;;;;;5066300;28;20314;-68
2023/01/23 05:59:43;;;;;;;2.83;1.97;;;;;;;;;;5065590;28;20203;-69
2023/01/23 06:02:10;;;;;;;6.40;1.70;;;;;;;;;;5065440;28;20573;-69
2023/01/23 06:04:38;;;;;;;5.03;3.50;;;;;;;;;;5065337;28;20209;-69
2023/01/23 06:07:08;;;;;;;2.10;1.67;;;;;;;;;;5067336;28;20236;-69
2023/01/23 06:09:35;;;;;;;1.50;1.47;;;;;;;;;;5065697;28;20695;-69
2023/01/23 06:12:02;;;;;;;1.13;0.83;;;;;;;;;;5066272;28;20303;-69
2023/01/23 06:14:29;;;;;;;2.00;1.90;;;;;;;;;;5066841;28;20214;-69
2023/01/23 06:16:56;;;;;;;1.80;1.70;;;;;;;;;;5067606;28;20233;-69
2023/01/23 06:19:23;;;;;;;1.70;1.53;;;;;;;;;;5065931;28;20214;-69
2023/01/23 06:21:50;;;;;;;1.63;1.30;;;;;;;;;;5065720;28;20207;-69
2023/01/23 06:24:19;;;;;;;2.60;1.77;;;;;;;;;;5064460;28;20215;-70
2023/01/23 06:26:46;;;;;;;2.47;2.30;;;;;;;;;;5060476;28;20223;-69
2023/01/23 06:29:13;;;;;;;2.53;1.87;;;;;;;;;;5066508;28;20206;-69
2023/01/23 06:31:40;;;;;;;2.43;2.27;;;;;;;;;;5060318;28;20219;-69
2023/01/23 06:34:07;;;;;;;1.80;1.20;;;;;;;;;;5067965;28;20236;-66
2023/01/23 06:36:34;;;;;;;1.27;0.90;;;;;;;;;;5069258;28;20207;-69
2023/01/23 06:39:02;;;;;;;3.07;1.57;;;;;;;;;;5067068;28;20766;-69
2023/01/23 06:41:30;;;;;;;1.63;1.23;;;;;;;;;;5070126;28;20210;-70
2023/01/23 06:43:57;;;;;;;3.37;2.63;;;;;;;;;;5063260;28;20210;-69
2023/01/23 06:46:24;;;;;;;2.47;1.33;;;;;;;;;;5067586;28;20243;-68
2023/01/23 06:48:53;;;;;;;1.47;1.43;;;;;;;;;;5066791;28;20235;-70
2023/01/23 06:51:20;;;;;;;2.73;1.43;;;;;;;;;;5068733;28;20298;-70
2023/01/23 06:53:47;;;;;;;3.30;1.57;;;;;;;;;;5070936;28;20715;-73
2023/01/23 06:56:14;;;;;;;1.93;0.90;;;;;;;;;;5068056;28;20272;-72
2023/01/23 06:58:43;;;;;;;2.07;1.97;;;;;;;;;;5050553;28;20202;-76
2023/01/23 07:01:11;;;;;;;1.20;1.13;;;;;;;;;;5062751;28;20213;-71
2023/01/23 07:03:38;;;;;;;0.97;0.77;;;;;;;;;;5067182;28;20665;-70
2023/01/23 07:06:06;;;;;;;1.10;0.73;;;;;;;;;;5064068;28;20209;-71
2023/01/23 07:08:33;;;;;;;1.50;1.03;;;;;;;;;;5052882;28;20482;-73
2023/01/23 07:11:00;;;;;;;2.53;2.20;;;;;;;;;;5061824;28;20295;-71
2023/01/23 07:13:27;;;;;;;1.53;0.97;;;;;;;;;;5068261;28;20209;-71
2023/01/23 07:15:56;;;;;;;2.70;1.60;;;;;;;;;;5060616;28;20260;-71
2023/01/23 07:18:24;;;;;;;1.67;1.57;;;;;;;;;;5070035;28;20295;-71
2023/01/23 07:20:51;;;;;;;1.07;0.93;;;;;;;;;;5068196;28;20347;-71
2023/01/23 07:23:18;;;;;;;2.00;1.47;;;;;;;;;;5053521;28;20211;-71
2023/01/23 07:25:45;;;;;;;1.63;1.53;;;;;;;;;;5069104;28;20602;-70
2023/01/23 07:28:12;;;;;;;1.47;1.37;;;;;;;;;;5070074;28;20242;-71
2023/01/23 07:30:39;;;;;;;1.73;1.60;;;;;;;;;;5069370;28;20210;-70
2023/01/23 07:33:07;;;;;;;2.03;1.73;;;;;;;;;;5072897;28;20218;-70
2023/01/23 07:35:34;;;;;;;0.87;0.87;;;;;;;;;;5069826;28;20216;-70
2023/01/23 07:38:02;;;;;;;1.50;1.50;;;;;;;;;;5071079;28;20916;-73
2023/01/23 07:40:30;;;;;;;1.60;1.50;;;;;;;;;;5056837;28;20209;-70
2023/01/23 07:42:57;;;;;;;1.27;1.17;;;;;;;;;;5069514;28;20218;-69
2023/01/23 07:45:24;;;;;;;1.13;0.83;;;;;;;;;;5069053;28;20223;-70
2023/01/23 07:47:51;;;;;;;0.77;0.73;;;;;;;;;;5067473;28;20259;-68
2023/01/23 07:50:19;;;;;;;0.77;0.77;;;;;;;;;;5068840;28;20712;-72
2023/01/23 07:52:46;;;;;;;1.07;1.03;;;;;;;;;;5069167;28;20214;-69
2023/01/23 07:55:13;;;;;;;1.93;1.40;;;;;;;;;;5067492;28;20644;-69
2023/01/23 07:57:41;;;;;;;2.43;1.93;;;;;;;;;;5068751;28;20223;-69
2023/01/23 08:00:09;;;;;;;0.97;0.97;;;;;;;;;;5068179;28;20209;-69
2023/01/23 08:02:37;;;;;;;2.40;1.93;;;;;;;;;;5067470;28;20214;-68
2023/01/23 08:05:04;;;;;;;0.83;0.73;;;;;;;;;;5051380;28;20216;-68
2023/01/23 08:07:32;;;;;;;1.50;1.27;;;;;;;;;;5058019;28;20223;-69
2023/01/23 08:09:59;;;;;;;2.63;1.13;;;;;;;;;;5067759;28;20268;-68
2023/01/23 08:12:26;;;;;;;2.83;2.07;;;;;;;;;;5066774;28;20215;-72
2023/01/23 08:14:53;;;;;;;2.10;1.90;;;;;;;;;;5067079;28;20207;-69
2023/01/23 08:17:20;;;;;;;2.83;1.50;;;;;;;;;;5069007;28;20229;-69
2023/01/23 08:19:47;;;;;;;1.27;1.23;;;;;;;;;;5067785;28;20740;-69
2023/01/23 08:22:15;;;;;;;1.77;1.67;;;;;;;;;;5068791;28;20276;-69
2023/01/23 08:24:43;;;;;;;2.23;1.53;;;;;;;;;;5068128;28;20221;-69
2023/01/23 08:27:10;;;;;;;1.23;1.13;;;;;;;;;;5067439;28;20225;-69
2023/01/23 08:29:37;;;;;;;1.70;1.60;;;;;;;;;;5067857;28;20217;-70
2023/01/23 08:32:04;;;;;;;1.70;1.30;;;;;;;;;;5066990;28;20210;-70
2023/01/23 08:34:31;;;;;;;1.27;1.17;;;;;;;;;;5067915;28;20215;-70
2023/01/23 08:36:58;;;;;;;1.10;1.10;;;;;;;;;;5065943;28;20623;-70
2023/01/23 08:39:25;;;;;;;2.53;1.90;;;;;;;;;;5067808;28;20213;-70
2023/01/23 08:41:53;;;;;;;1.20;1.10;;;;;;;;;;5067739;28;20210;-70
2023/01/23 08:44:21;;;;;;;1.33;1.23;;;;;;;;;;5067764;28;20699;-70
2023/01/23 08:46:48;;;;;;;1.70;1.60;;;;;;;;;;5067288;28;20247;-70
2023/01/23 08:49:18;;;;;;;0.90;0.90;;;;;;;;;;5067518;28;20227;-70
2023/01/23 08:51:45;;;;;;;1.60;1.50;;;;;;;;;;5066818;28;20226;-70
2023/01/23 08:54:12;;;;;;;2.03;1.83;;;;;;;;;;5067269;28;20207;-70
2023/01/23 08:56:40;;;;;;;2.20;1.27;;;;;;;;;;5066830;28;20333;-70
2023/01/23 08:59:08;;;;;;;2.77;1.77;;;;;;;;;;5067988;28;20859;-71
2023/01/23 09:01:35;;;;;;;1.07;1.03;;;;;;;;;;5067394;28;20230;-71
2023/01/23 09:04:02;;;;;;;0.50;0.50;;;;;;;;;;5067959;28;20214;-71
2023/01/23 09:06:29;;;;;;;1.53;1.43;;;;;;;;;;5065172;28;20217;-70
2023/01/23 09:08:57;;;;;;;1.40;1.20;;;;;;;;;;5067454;28;20230;-68
2023/01/23 09:11:24;;;;;;;1.40;0.60;;;;;;;;;;5068457;28;20210;-75
2023/01/23 09:13:51;;;;;;;0.93;0.93;;;;;;;;;;5068053;28;20230;-69
2023/01/23 09:16:19;;;;;;;1.73;1.33;;;;;;;;;;5067342;28;20209;-69
2023/01/23 09:18:46;;;;;;;1.77;1.67;;;;;;;;;;5067602;28;20203;-73
2023/01/23 09:21:14;;;;;;;1.63;1.43;;;;;;;;;;5067702;28;20223;-69
2023/01/23 09:23:41;;;;;;;1.63;1.53;;;;;;;;;;5067491;28;20537;-69
2023/01/23 09:26:09;;;;;;;1.17;0.90;;;;;;;;;;5067425;28;20214;-69
2023/01/23 09:28:37;;;;;;;0.77;0.77;;;;;;;;;;5067235;28;20263;-70
2023/01/23 09:31:06;;;;;;;0.93;0.93;;;;;;;;;;5067321;28;20313;-70
2023/01/23 09:33:34;;;;;;;1.10;1.07;;;;;;;;;;5067321;28;20268;-70
2023/01/23 09:36:01;;;;;;;2.13;2.00;;;;;;;;;;5067174;28;20591;-70
2023/01/23 09:38:28;;;;;;;0.70;0.70;;;;;;;;;;5067158;28;20617;-69
2023/01/23 09:40:57;;;;;;;0.93;0.87;;;;;;;;;;5067195;28;20211;-69
2023/01/23 09:43:26;;;;;;;0.40;0.40;;;;;;;;;;5067499;28;20649;-69
2023/01/23 09:45:56;;;;;;;0.00;0.00;;;;;;;;;;5065758;28;20238;-70
2023/01/23 09:48:28;;;;;;;1.60;0.70;;;;;;;;;;5067055;28;20244;-69
2023/01/23 09:50:59;;;;;;;1.77;1.33;;;;;;;;;;5065955;28;20216;-69
2023/01/23 09:53:30;;;;;;;1.23;1.23;;;;;;;;;;5067173;28;20213;-70
2023/01/23 09:56:00;;;;;;;0.60;0.60;;;;;;;;;;5066739;28;20273;-69
2023/01/23 09:58:29;;;;;;;1.00;0.90;;;;;;;;;;5067114;28;20320;-70
2023/01/23 10:00:56;;;;;;;0.73;0.73;;;;;;;;;;5067084;28;20218;-70
2023/01/23 10:03:26;;;;;;;1.03;1.03;;;;;;;;;;5067204;28;20676;-70
2023/01/23 10:06:01;;;;;;;1.30;1.20;;;;;;;;;;5065769;28;20211;-69
2023/01/23 10:08:35;;;;;;;0.20;0.20;;;;;;;;;;5069451;28;20240;-70
2023/01/23 10:11:04;;;;;;;1.40;0.60;;;;;;;;;;5071076;28;20219;-70
2023/01/23 10:13:36;;;;;;;0.47;0.47;;;;;;;;;;5071261;28;20341;-70
2023/01/23 10:16:23;;;;;;;0.80;0.80;;;;;;;;;;5070904;28;20211;-69
2023/01/23 10:18:54;;;;;;;0.60;0.50;;;;;;;;;;5070946;28;20203;-68
2023/01/23 10:21:25;;;;;;;1.00;0.93;;;;;;;;;;5071012;28;20206;-70
2023/01/23 10:24:00;;;;;;;1.50;1.40;;;;;;;;;;5070748;28;20210;-69
2023/01/23 10:26:30;;;;;;;1.83;0.83;;;;;;;;;;5070763;28;20218;-70
2023/01/23 10:29:00;;;;;;;1.37;1.20;;;;;;;;;;5069887;28;20246;-70
2023/01/23 10:31:31;;;;;;;0.60;0.60;;;;;;;;;;5070673;28;20214;-69
2023/01/23 10:34:02;;;;;;;2.50;1.20;;;;;;;;;;5070653;28;20579;-69
2023/01/23 10:36:31;;;;;;;0.87;0.87;;;;;;;;;;5070676;28;20211;-70
2023/01/23 10:39:02;;;;;;;2.60;1.97;;;;;;;;;;5070498;28;20199;-69
2023/01/23 10:41:29;;;;;;;0.83;0.83;;;;;;;;;;5070775;28;20218;-69
2023/01/23 10:43:57;;;;;;;1.87;1.77;;;;;;;;;;5070416;28;20218;-69
2023/01/23 10:46:28;;;;;;;1.03;0.73;;;;;;;;;;5070284;28;20333;-69
2023/01/23 10:48:55;;;;;;;0.93;0.93;;;;;;;;;;5070156;28;20227;-64
2023/01/23 10:51:27;;;;;;;0.20;0.20;;;;;;;;;;5070585;28;20210;-73
2023/01/23 10:54:17;;;;;;;2.27;2.10;;;;;;;;;;5070223;28;20980;-71
2023/01/23 10:56:52;;;;;;;3.00;1.10;;;;;;;;;;5064226;28;20621;-71
2023/01/23 10:59:21;;;;;;;1.30;0.60;;;;;;;;;;5070212;28;20206;-71
2023/01/23 11:01:58;;;;;;;1.67;1.57;;;;;;;;;;5070234;28;20211;-70
2023/01/23 11:04:26;;;;;;;2.07;1.13;;;;;;;;;;5070125;28;20206;-70
2023/01/23 11:07:00;;;;;;;3.73;2.33;;;;;;;;;;5069549;28;20214;-69
2023/01/23 11:09:29;;;;;;;2.00;1.50;;;;;;;;;;5069537;28;20234;-69
2023/01/23 11:12:05;;;;;;;3.10;2.53;;;;;;;;;;5069550;28;20253;-69
2023/01/23 11:14:32;;;;;;;2.50;1.50;;;;;;;;;;5069534;28;20241;-69
2023/01/23 11:17:01;;;;;;;1.57;1.30;;;;;;;;;;5069366;28;20640;-69
2023/01/23 11:19:30;;;;;;;0.93;0.20;;;;;;;;;;5069097;28;20203;-69
2023/01/23 11:21:58;;;;;;;1.60;1.20;;;;;;;;;;5069600;28;20210;-70
2023/01/23 11:24:31;;;;;;;1.80;1.43;;;;;;;;;;5069603;28;20211;-70
2023/01/23 11:27:01;;;;;;;1.37;1.10;;;;;;;;;;5069172;28;20211;-70
2023/01/23 11:29:30;;;;;;;2.23;2.13;;;;;;;;;;5069750;28;20280;-70
2023/01/23 11:32:01;;;;;;;1.50;1.40;;;;;;;;;;5069523;28;20211;-69
2023/01/23 11:34:30;;;;;;;3.90;2.57;;;;;;;;;;5068658;28;20273;-69
2023/01/23 11:37:02;;;;;;;0.83;0.83;;;;;;;;;;5069043;28;20272;-69
2023/01/23 11:39:38;;;;;;;3.30;1.73;;;;;;;;;;5069732;28;20208;-70
2023/01/23 11:42:05;;;;;;;2.23;1.90;;;;;;;;;;5069607;28;20218;-70
2023/01/23 11:44:33;;;;;;;0.27;0.27;;;;;;;;;;5069307;28;20203;-69
2023/01/23 11:47:19;;;;;;;1.40;1.30;;;;;;;;;;5068858;28;20718;-70
2023/01/23 11:49:56;;;;;;;2.10;2.00;;;;;;;;;;5069199;28;20292;-70
2023/01/23 11:52:28;;;;;;;1.53;1.43;;;;;;;;;;5069339;28;20638;-70
2023/01/23 11:55:05;;;;;;;1.17;1.10;;;;;;;;;;5069330;28;20237;-69
2023/01/23 11:57:36;;;;;;;1.70;1.60;;;;;;;;;;5069114;28;20222;-70
2023/01/23 12:00:12;;;;;;;0.77;0.77;;;;;;;;;;5069290;28;20202;-70
2023/01/23 12:02:58;;;;;;;1.47;1.37;;;;;;;;;;5068456;28;20210;-70
2023/01/23 12:05:30;;;;;;;1.17;0.77;;;;;;;;;;5061064;28;20227;-70
2023/01/23 12:08:03;;;;;;;1.70;1.60;;;;;;;;;;5058591;28;20211;-70
2023/01/23 12:10:36;;;;;;;0.37;0.37;;;;;;;;;;5068830;28;20372;-69
2023/01/23 12:13:16;;;;;;;2.70;1.80;;;;;;;;;;5068165;28;20242;-70
2023/01/23 12:15:48;;;;;;;2.40;1.70;;;;;;;;;;5068827;28;20214;-70
2023/01/23 12:18:21;;;;;;;1.60;1.50;;;;;;;;;;5068563;28;20242;-70
2023/01/23 12:20:54;;;;;;;1.60;1.50;;;;;;;;;;5068612;28;20852;-70
2023/01/23 12:23:30;;;;;;;1.90;1.70;;;;;;;;;;5068285;28;20213;-70
2023/01/23 12:26:01;;;;;;;0.80;0.80;;;;;;;;;;5067753;28;20218;-70
2023/01/23 12:28:50;;;;;;;1.63;1.53;;;;;;;;;;5068066;28;20211;-69
2023/01/23 12:31:28;;;;;;;1.67;1.57;;;;;;;;;;5066905;28;20211;-70
2023/01/23 12:34:09;;;;;;;0.80;0.80;;;;;;;;;;5067749;28;20207;-69
2023/01/23 12:36:46;;;;;;;1.60;1.50;;;;;;;;;;5067544;28;20250;-69
2023/01/23 12:39:21;;;;;;;0.83;0.73;;;;;;;;;;5066658;28;20207;-70
2023/01/23 12:41:51;;;;;;;0.57;0.57;;;;;;;;;;5067504;28;20602;-69
2023/01/23 12:44:21;;;;;;;1.07;0.97;;;;;;;;;;5067488;28;20214;-69
2023/01/23 12:46:52;;;;;;;1.23;1.20;;;;;;;;;;5066919;28;20244;-69
2023/01/23 12:49:22;;;;;;;1.73;1.63;;;;;;;;;;5067064;28;20288;-69
2023/01/23 12:51:51;;;;;;;3.27;1.40;;;;;;;;;;5067366;28;20216;-70
2023/01/23 12:54:22;;;;;;;1.10;1.03;;;;;;;;;;5066217;28;20222;-70
2023/01/23 12:56:49;;;;;;;1.67;1.57;;;;;;;;;;5066899;28;20753;-70
2023/01/23 12:59:20;;;;;;;0.60;0.60;;;;;;;;;;5066851;28;20207;-70
2023/01/23 13:01:54;;;;;;;0.97;0.93;;;;;;;;;;5066962;28;20286;-69
2023/01/23 13:04:29;;;;;;;1.10;1.10;;;;;;;;;;5067629;28;20451;-69
2023/01/23 13:07:02;;;;;;;2.53;1.93;;;;;;;;;;5067258;28;20202;-70
2023/01/23 13:09:35;;;;;;;1.67;1.57;;;;;;;;;;5067300;28;20648;-70
2023/01/23 13:12:10;;;;;;;0.37;0.37;;;;;;;;;;5067850;28;20215;-69
2023/01/23 13:14:42;;;;;;;1.40;1.07;;;;;;;;;;5067433;28;20209;-70
2023/01/23 13:23:25;;;;;;;0.73;0.50;;;;;;;;;;5084807;28;20217;-70
2023/01/23 13:26:12;;;;;;;0.83;0.83;;;;;;;;;;5084529;28;20204;-68
2023/01/23 13:28:42;;;;;;;5.37;0.83;;;;;;;;;;5084660;28;20207;-68
2023/01/23 13:31:24;;;;;;;1.47;1.37;;;;;;;;;;5084537;28;20210;-68
2023/01/23 13:33:52;;;;;;;1.47;1.37;;;;;;;;;;5084702;28;20728;-71
2023/01/23 13:36:27;;;;;;;0.93;0.93;;;;;;;;;;5084776;28;20210;-70
2023/01/23 13:39:01;;;;;;;2.27;1.70;;;;;;;;;;5084813;28;20299;-71
2023/01/23 13:41:29;;;;;;;1.07;1.07;;;;;;;;;;5084766;28;20214;-70
2023/01/23 13:44:02;;;;;;;2.70;1.90;;;;;;;;;;5081400;28;20218;-71
2023/01/23 13:46:32;;;;;;;5.80;2.57;;;;;;;;;;5083985;28;20252;-70
2023/01/23 13:51:49;;;;;;;2.47;2.00;;;;;;;;;;5084686;28;20221;-69
2023/01/23 13:57:06;;;;;;;0.93;0.93;;;;;;;;;;5069239;28;20224;-67
2023/01/23 13:59:36;;;;;;;3.70;1.70;;;;;;;;;;5063506;28;20238;-69
2023/01/23 14:05:14;;;;;;;1.73;1.63;;;;;;;;;;5063274;28;20586;-69
2023/01/23 14:07:43;;;;;;;1.80;1.70;;;;;;;;;;5063381;28;20309;-70
2023/01/23 14:10:17;;;;;;;1.73;1.63;;;;;;;;;;5047411;28;20195;-70
2023/01/23 14:12:44;;;;;;;1.40;1.30;;;;;;;;;;5063379;28;20622;-81
2023/01/23 14:18:04;;;;;;;1.00;1.00;;;;;;;;;;5059701;28;20342;-69
2023/01/23 14:20:36;;;;;;;1.50;0.87;;;;;;;;;;5062832;28;20233;-69
2023/01/23 14:23:05;;;;;;;1.13;1.13;;;;;;;;;;5047589;28;20213;-73
2023/01/23 14:25:33;;;;;;;0.80;0.80;;;;;;;;;;5058241;28;20573;-69
2023/01/23 14:28:04;;;;;;;2.07;1.43;;;;;;;;;;5059123;28;20244;-69
2023/01/23 14:30:31;;;;;;;1.87;1.70;;;;;;;;;;5048629;28;20208;-69
2023/01/23 14:32:58;;;;;;;2.53;1.80;;;;;;;;;;5045882;28;20218;-69
2023/01/23 14:35:26;;;;;;;1.93;1.60;;;;;;;;;;5046862;28;20329;-69
2023/01/23 14:37:54;;;;;;;2.10;2.00;;;;;;;;;;5032108;28;20236;-68
2023/01/23 14:40:23;;;;;;;2.03;1.30;;;;;;;;;;5033198;28;20210;-68
2023/01/23 14:42:54;;;;;;;0.50;0.50;;;;;;;;;;5051335;28;20208;-69
2023/01/23 14:45:21;;;;;;;1.90;1.43;;;;;;;;;;5048482;28;20203;-68
2023/01/23 14:47:49;;;;;;;2.70;2.23;;;;;;;;;;5047445;28;20652;-68
2023/01/23 14:50:26;;;;;;;0.77;0.60;;;;;;;;;;5047600;28;20206;-68
2023/01/23 14:52:57;;;;;;;1.03;1.03;;;;;;;;;;5047385;28;20211;-67
2023/01/23 14:55:27;;;;;;;2.03;1.50;;;;;;;;;;5051840;28;20248;-68
2023/01/23 14:57:55;;;;;;;1.00;1.00;;;;;;;;;;5063092;28;20218;-69
2023/01/23 15:00:22;;;;;;;1.43;1.00;;;;;;;;;;5066549;28;20226;-68
2023/01/23 15:02:52;;;;;;;0.53;0.40;;;;;;;;;;5047935;28;20212;-70
2023/01/23 15:05:22;;;;;;;1.30;0.93;;;;;;;;;;5046229;28;20222;-67
2023/01/23 15:07:53;;;;;;;1.50;1.37;;;;;;;;;;5046998;28;20234;-74
2023/01/23 15:10:21;;;;;;;2.43;1.37;;;;;;;;;;5048283;28;20292;-69
2023/01/23 15:12:52;;;;;;;1.13;0.77;;;;;;;;;;5049150;28;20253;-69
2023/01/23 15:15:20;;;;;;;0.50;0.50;;;;;;;;;;5057299;28;20215;-69
2023/01/23 15:17:48;;;;;;;0.73;0.33;;;;;;;;;;5047999;28;20208;-69
2023/01/23 15:20:32;;;;;;;0.90;0.60;;;;;;;;;;5053479;28;20239;-69
2023/01/23 15:23:14;;;;;;;1.20;1.10;;;;;;;;;;5057994;28;20565;-70